Inspiration — C6FM5 — position and weather

sailwx.info

Track history (hours):
 
Tides and Currents Weather Stations Pressure Air Temp Water Temp Dewpoint Dewpoint Depression Visibility Wind Speed Wind Dir Waves Ship Positions

Inspiration

Operator: Carnival Cruise Lines

Last reported at 2018-Apr-23 04:00 UTC. Time now 2018-Apr-23 04:01 UTC.
Position N 32°05' W 117°17'.

Type: Ship. MMSI: 309484000.

Date/timePositionNaut miles runAvg speedWind from/ knotsBaromVisibWave heightAir tempDewpointWater temp
2018-Apr-23 04:00N 32°05' W 117°17'815.4
2018-Apr-23 03:30N 32°01' W 117°09'815.5
2018-Apr-23 03:00N 31°58' W 117°01'815.1
2018-Apr-23 02:29N 31°55' W 116°52'714.9
2018-Apr-23 02:00N 31°51' W 116°45'5 0.4
2018-Apr-22 13:54N 31°50' W 116°39'3 6.6
2018-Apr-22 13:30N 31°50' W 116°42'5 6.9
2018-Apr-22 12:47N 31°50' W 116°48'2 6.4
2018-Apr-22 12:27N 31°50' W 116°50'5 6.6
2018-Apr-22 11:43N 31°49' W 116°56'1 7.0
2018-Apr-22 11:31N 31°49' W 116°58'4 7.0
2018-Apr-22 11:00N 31°47' W 117°01'4 7.2
2018-Apr-22 10:29N 31°46' W 117°05'4 7.2
2018-Apr-22 09:59N 31°46' W 117°10'4 7.9
2018-Apr-22 09:30N 31°44' W 117°14'4 7.2
2018-Apr-22 09:01N 31°41' W 117°14'4 7.3
2018-Apr-22 08:30N 31°37' W 117°14'9 7.3
2018-Apr-22 07:13N 31°28' W 117°11'4 6.2
2018-Apr-22 06:36N 31°24' W 117°10'29 6.4
2018-Apr-22 02:04N 31°50' W 117°27'0 7.0
2018-Apr-22 02:00N 31°50' W 117°27'3 6.6
2018-Apr-22 01:30N 31°47' W 117°24'3 6.6
2018-Apr-22 01:00N 31°45' W 117°21'3 6.5
2018-Apr-22 00:30N 31°42' W 117°19'3 6.6
2018-Apr-22 00:00N 31°40' W 117°16'3 6.6
2018-Apr-21 23:30N 31°38' W 117°13'6 2.8
2018-Apr-21 21:25N 31°33' W 117°09'18 7.5
2018-Apr-21 19:00N 31°36' W 117°30'29 7.6 300 / 211021.3 17.013.716.0
2018-Apr-21 15:10N 31°42' W 118°04'1 7.5
2018-Apr-21 14:59N 31°42' W 118°05'4 7.5
2018-Apr-21 14:30N 31°44' W 118°09'4 6.1
2018-Apr-21 13:51N 31°48' W 118°10'2 7.4
2018-Apr-21 13:30N 31°50' W 118°09'4 8.0
2018-Apr-21 13:00N 31°54' W 118°07'510.3
2018-Apr-21 12:30N 31°58' W 118°05'510.3
2018-Apr-21 12:01N 32°03' W 118°03'510.6
2018-Apr-21 11:31N 32°08' W 118°00'510.9
2018-Apr-21 11:01N 32°13' W 117°58'510.9
2018-Apr-21 10:31N 32°18' W 117°56'611.0
2018-Apr-21 10:00N 32°23' W 117°53'510.7
2018-Apr-21 09:30N 32°28' W 117°51'510.4
2018-Apr-21 09:00N 32°33' W 117°48'5 9.9
2018-Apr-21 08:30N 32°38' W 117°48'510.6
2018-Apr-21 08:00N 32°43' W 117°50'510.8
2018-Apr-21 07:30N 32°48' W 117°52'510.8
2018-Apr-21 07:00N 32°53' W 117°54'510.6
2018-Apr-21 06:30N 32°58' W 117°56'510.6
2018-Apr-21 06:00N 33°03' W 117°59'510.6
2018-Apr-21 05:30N 33°08' W 118°01'510.7
2018-Apr-21 05:00N 33°13' W 118°03'510.6
2018-Apr-21 04:30N 33°18' W 118°06'510.5
2018-Apr-21 04:00N 33°23' W 118°08'510.6
2018-Apr-21 03:30N 33°28' W 118°10'510.8
2018-Apr-21 03:00N 33°33' W 118°12'510.2
2018-Apr-21 02:30N 33°38' W 118°13'5 9.1
2018-Apr-21 02:00N 33°42' W 118°11'3 5.3
2018-Apr-21 01:30N 33°45' W 118°11'0 0.0
2018-Apr-21 01:00N 33°45' W 118°11'0 0.0
2018-Apr-21 00:29N 33°45' W 118°11'0 0.0
2018-Apr-20 23:59N 33°45' W 118°11'0 0.0
2018-Apr-20 23:29N 33°45' W 118°11'0 0.0
2018-Apr-20 22:59N 33°45' W 118°11'0 0.0
2018-Apr-20 22:28N 33°45' W 118°11'0 0.0
2018-Apr-20 21:58N 33°45' W 118°11'0 0.0
2018-Apr-20 21:28N 33°45' W 118°11'0 0.0
2018-Apr-20 20:58N 33°45' W 118°11'0 0.0
2018-Apr-20 20:28N 33°45' W 118°11'0 0.0
2018-Apr-20 19:54N 33°45' W 118°11'0 0.0
2018-Apr-20 19:30N 33°45' W 118°11'0 0.0
2018-Apr-20 19:00N 33°45' W 118°11'0 0.0
2018-Apr-20 18:30N 33°45' W 118°11'0 0.0
2018-Apr-20 18:00N 33°45' W 118°11'0 0.0
2018-Apr-20 17:29N 33°45' W 118°11'0 0.0
2018-Apr-20 16:59N 33°45' W 118°11'0 0.0
2018-Apr-20 16:29N 33°45' W 118°11'0 0.0
2018-Apr-20 15:59N 33°45' W 118°11'0 0.0
2018-Apr-20 15:28N 33°45' W 118°11'0 0.0
2018-Apr-20 14:55N 33°45' W 118°11'0 0.0
2018-Apr-20 14:28N 33°45' W 118°11'0 0.0
2018-Apr-20 13:58N 33°45' W 118°11'0 0.0
2018-Apr-20 12:44N 33°45' W 118°11'0 0.2
2018-Apr-20 12:29N 33°45' W 118°11'1 2.2
2018-Apr-20 12:00N 33°44' W 118°11'5 9.2
2018-Apr-20 11:30N 33°39' W 118°10'4 7.1
2018-Apr-20 11:00N 33°36' W 118°10'714.5
2018-Apr-20 10:30N 33°29' W 118°07'815.1
2018-Apr-20 09:58N 33°22' W 118°04'714.2
2018-Apr-20 09:30N 33°15' W 118°01'815.2
2018-Apr-20 09:00N 33°08' W 117°58'714.8
2018-Apr-20 08:30N 33°01' W 117°55'714.9
2018-Apr-20 08:01N 32°54' W 117°52'714.9
2018-Apr-20 07:30N 32°47' W 117°49'714.5
2018-Apr-20 07:00N 32°40' W 117°46'714.6
2018-Apr-20 06:30N 32°34' W 117°42'714.5
2018-Apr-20 06:00N 32°27' W 117°39'7 0.3
2018-Apr-19 06:13N 32°20' W 117°39'211.1
2018-Apr-19 06:00N 32°22' W 117°40'5435.2
2018-Apr-19 06:00N 32°18' W 117°36'1121.9 280 / 151020.3 13.0 9.416.0
2018-Apr-19 05:30N 32°27' W 117°43'510.8
2018-Apr-19 05:00N 32°31' W 117°46'510.8
2018-Apr-19 04:30N 32°36' W 117°49'510.9
2018-Apr-19 04:00N 32°41' W 117°52'510.9
2018-Apr-19 03:30N 32°45' W 117°56'511.0
2018-Apr-19 03:00N 32°49' W 118°01'510.7
2018-Apr-19 02:30N 32°54' W 118°03'510.6
2018-Apr-19 02:00N 32°59' W 118°05'510.7
2018-Apr-19 01:30N 33°05' W 118°06'611.2
2018-Apr-19 01:00N 33°10' W 118°09'611.3
2018-Apr-19 00:30N 33°15' W 118°12'611.1
2018-Apr-19 00:00N 33°19' W 118°17'3 5.9
2018-Apr-18 23:30N 33°21' W 118°19'0 0.2
2018-Apr-18 23:00N 33°21' W 118°19'0 0.1
2018-Apr-18 22:24N 33°21' W 118°19'0 0.0
2018-Apr-18 22:00N 33°21' W 118°19'0 0.0
2018-Apr-18 21:18N 33°21' W 118°19'0 0.0
2018-Apr-18 20:11N 33°21' W 118°19'0 0.4
2018-Apr-18 19:59N 33°21' W 118°19'0 0.0
2018-Apr-18 19:23N 33°21' W 118°19'0 0.1
2018-Apr-18 18:59N 33°21' W 118°19'0 0.1
2018-Apr-18 18:29N 33°21' W 118°19'0 0.1
2018-Apr-18 17:43N 33°21' W 118°19'0 0.1
2018-Apr-18 17:28N 33°21' W 118°19'0 0.0
2018-Apr-18 16:58N 33°21' W 118°19'0 0.0
2018-Apr-18 16:28N 33°21' W 118°19'0 0.0
2018-Apr-18 15:57N 33°21' W 118°19'0 0.0
2018-Apr-18 15:27N 33°21' W 118°19'0 0.0
2018-Apr-18 14:02N 33°21' W 118°19'0 0.9
2018-Apr-18 13:59N 33°21' W 118°19'2 4.7
2018-Apr-18 13:29N 33°19' W 118°17'3 6.8
2018-Apr-18 13:00N 33°16' W 118°16'3 6.7
2018-Apr-18 12:30N 33°13' W 118°15'4 7.2
2018-Apr-18 12:00N 33°09' W 118°14'4 7.6
2018-Apr-18 11:30N 33°06' W 118°13'4 7.2
2018-Apr-18 11:00N 33°03' W 118°10'4 7.5
2018-Apr-18 10:30N 33°01' W 118°07'4 7.6
2018-Apr-18 10:00N 32°58' W 118°03'4 7.7
2018-Apr-18 09:30N 32°55' W 118°01'4 7.7
2018-Apr-18 08:57N 32°51' W 117°58'3 7.7
2018-Apr-18 08:30N 32°48' W 117°56'4 7.6
2018-Apr-18 08:00N 32°44' W 117°57'4 7.8
2018-Apr-18 07:30N 32°41' W 117°59'4 8.1
2018-Apr-18 07:00N 32°37' W 118°01'3 6.2
2018-Apr-18 06:30N 32°39' W 118°05'4 7.9
2018-Apr-18 06:00N 32°42' W 118°04'4 8.2
2018-Apr-18 05:30N 32°46' W 118°02'4 8.4
2018-Apr-18 05:00N 32°51' W 118°02'4 8.5
2018-Apr-18 04:30N 32°54' W 118°04'510.3
2018-Apr-18 04:00N 32°56' W 118°10'510.3
2018-Apr-18 03:30N 32°58' W 118°16'4 7.9
2018-Apr-18 03:00N 32°57' W 118°20'3 6.8
2018-Apr-18 02:30N 32°54' W 118°18'5 7.0
2018-Apr-18 01:51N 32°51' W 118°14'21 8.2
2018-Apr-17 23:19N 32°41' W 117°52'310.2
2018-Apr-17 23:00N 32°39' W 117°50'610.6
2018-Apr-17 22:28N 32°33' W 117°50'510.9
2018-Apr-17 22:00N 32°28' W 117°52'610.8
2018-Apr-17 21:28N 32°23' W 117°53'3510.1
2018-Apr-17 18:00N 31°48' W 118°00'29 4.6 350 / 201025.310.8 16.0 8.816.0
2018-Apr-17 11:44N 32°16' W 117°55'2 7.2
2018-Apr-17 11:26N 32°19' W 117°54'3 7.4
2018-Apr-17 10:59N 32°22' W 117°53'4 7.7
2018-Apr-17 10:30N 32°25' W 117°51'4 7.8
2018-Apr-17 10:00N 32°29' W 117°50'4 7.6
2018-Apr-17 09:30N 32°32' W 117°49'4 7.3
2018-Apr-17 09:00N 32°36' W 117°47'3 6.8
2018-Apr-17 08:30N 32°39' W 117°48'4 7.1
2018-Apr-17 08:00N 32°43' W 117°49'4 7.5
2018-Apr-17 07:30N 32°46' W 117°51'4 7.9
2018-Apr-17 07:00N 32°50' W 117°53'4 7.6
2018-Apr-17 06:30N 32°53' W 117°54'4 7.6
2018-Apr-17 06:00N 32°57' W 117°56'4 7.8
2018-Apr-17 05:30N 33°00' W 117°57'4 7.8
2018-Apr-17 05:00N 33°04' W 117°59'5 7.8
2018-Apr-17 04:24N 33°09' W 118°01'3 7.4
2018-Apr-17 04:00N 33°11' W 118°02'510.3
2018-Apr-17 03:29N 33°16' W 118°05'1010.4
2018-Apr-17 02:29N 33°26' W 118°09'510.1
2018-Apr-17 02:00N 33°31' W 118°11'510.0
2018-Apr-17 01:30N 33°35' W 118°13'611.3
2018-Apr-17 01:00N 33°41' W 118°12'4 8.4
2018-Apr-17 00:30N 33°45' W 118°11'0 0.0
2018-Apr-16 23:58N 33°45' W 118°11'0 0.0
2018-Apr-16 23:30N 33°45' W 118°11'0 0.0
2018-Apr-16 23:00N 33°45' W 118°11'0 0.0
2018-Apr-16 22:30N 33°45' W 118°11'0 0.0
2018-Apr-16 22:00N 33°45' W 118°11'0 0.0
2018-Apr-16 21:30N 33°45' W 118°11'0 0.0
2018-Apr-16 20:59N 33°45' W 118°11'0 0.0
2018-Apr-16 20:29N 33°45' W 118°11'0 0.0
2018-Apr-16 19:59N 33°45' W 118°11'0 0.0
2018-Apr-16 19:29N 33°45' W 118°11'0 0.0
2018-Apr-16 18:58N 33°45' W 118°11'0 0.0
2018-Apr-16 18:28N 33°45' W 118°11'0 0.0
2018-Apr-16 17:58N 33°45' W 118°11'0 0.0
2018-Apr-16 17:28N 33°45' W 118°11'0 0.0
2018-Apr-16 16:58N 33°45' W 118°11'0 0.0
2018-Apr-16 16:30N 33°45' W 118°11'0 0.0
2018-Apr-16 16:00N 33°45' W 118°11'0 0.0
2018-Apr-16 15:30N 33°45' W 118°11'0 0.0
2018-Apr-16 15:00N 33°45' W 118°11'0 0.0
2018-Apr-16 14:27N 33°45' W 118°11'0 0.0
2018-Apr-16 13:59N 33°45' W 118°11'0 0.0
2018-Apr-16 13:29N 33°45' W 118°11'0 0.0
2018-Apr-16 12:59N 33°45' W 118°11'0 0.0
2018-Apr-16 12:30N 33°45' W 118°11'1 1.9
2018-Apr-16 12:00N 33°44' W 118°11'4 8.8
2018-Apr-16 11:30N 33°40' W 118°11'4 7.3
2018-Apr-16 11:00N 33°36' W 118°10'911.2
2018-Apr-16 10:12N 33°28' W 118°06'312.4
2018-Apr-16 10:00N 33°25' W 118°05'611.8
2018-Apr-16 09:29N 33°20' W 118°03'715.2
2018-Apr-16 09:00N 33°13' W 117°60'815.8
2018-Apr-16 08:30N 33°05' W 117°57'815.4
2018-Apr-16 08:00N 32°58' W 117°53'815.3
2018-Apr-16 07:30N 32°51' W 117°50'815.1
2018-Apr-16 07:00N 32°44' W 117°47'815.2
2018-Apr-16 06:30N 32°37' W 117°44'815.2
2018-Apr-16 06:00N 32°30' W 117°40'6401.9
2018-Apr-16 06:00N 32°36' W 117°42'1428.6 300 / 141017.2 5.4 16.014.416.5
2018-Apr-16 05:30N 32°23' W 117°36'814.9
2018-Apr-16 05:00N 32°16' W 117°32'914.8
2018-Apr-16 04:23N 32°10' W 117°25'715.3
2018-Apr-16 03:57N 32°06' W 117°18'915.6
2018-Apr-16 03:24N 32°01' W 117°10'615.6
2018-Apr-16 03:00N 31°59' W 117°03'815.3
2018-Apr-16 02:30N 31°56' W 116°55'814.8
2018-Apr-16 01:58N 31°52' W 116°47'612.9
2018-Apr-16 01:30N 31°50' W 116°40'7 0.6
2018-Apr-15 12:51N 31°50' W 116°48'84 4.9
2018-Apr-14 19:49N 31°23' W 118°21'2 7.3
2018-Apr-14 19:30N 31°25' W 118°20'9 5.7
2018-Apr-14 18:00N 31°30' W 118°12'639.0 350 / 111025.310.8 17.013.716.0
2018-Apr-14 17:50N 31°36' W 118°15'2 7.1
2018-Apr-14 17:31N 31°38' W 118°14'4 7.1
2018-Apr-14 17:01N 31°41' W 118°13'4 7.3
2018-Apr-14 16:31N 31°45' W 118°11'4 7.2
2018-Apr-14 16:00N 31°48' W 118°10'4 7.1
2018-Apr-14 15:30N 31°51' W 118°08'3 6.9
2018-Apr-14 15:01N 31°55' W 118°07'3 6.8
2018-Apr-14 14:30N 31°58' W 118°05'3 6.9
2018-Apr-14 14:01N 32°01' W 118°04'4 7.1
2018-Apr-14 13:31N 32°04' W 118°02'4 7.2
2018-Apr-14 13:00N 32°08' W 118°01'4 8.1
2018-Apr-14 12:30N 32°11' W 117°59'4 7.2
2018-Apr-14 12:00N 32°15' W 117°57'3 6.6
2018-Apr-14 11:30N 32°18' W 117°56'3 6.9
2018-Apr-14 11:00N 32°21' W 117°55'4 7.1
2018-Apr-14 10:30N 32°24' W 117°53'4 7.2
2018-Apr-14 10:00N 32°28' W 117°51'4 7.3
2018-Apr-14 09:31N 32°31' W 117°50'4 7.3
2018-Apr-14 09:01N 32°35' W 117°48'4 7.3
2018-Apr-14 08:31N 32°38' W 117°47'4 7.3
2018-Apr-14 08:00N 32°41' W 117°49'4 7.2
2018-Apr-14 07:30N 32°45' W 117°50'4 7.7
2018-Apr-14 07:00N 32°48' W 117°52'4 8.1
2018-Apr-14 06:31N 32°52' W 117°54'4 8.1
2018-Apr-14 06:01N 32°56' W 117°55'4 8.1
2018-Apr-14 05:30N 32°60' W 117°57'4 8.1
2018-Apr-14 05:00N 33°04' W 117°59'4 8.1
2018-Apr-14 04:30N 33°07' W 118°01'4 8.3
2018-Apr-14 04:00N 33°11' W 118°02'611.6
2018-Apr-14 03:30N 33°17' W 118°05'611.7
2018-Apr-14 02:59N 33°22' W 118°07'511.5
2018-Apr-14 02:31N 33°27' W 118°10'611.4
2018-Apr-14 02:01N 33°33' W 118°12'510.4
2018-Apr-14 01:30N 33°38' W 118°13'5 9.8
2018-Apr-14 01:00N 33°43' W 118°11'2 4.5
2018-Apr-14 00:30N 33°45' W 118°11'0 0.0
2018-Apr-13 23:59N 33°45' W 118°11'0 0.0
2018-Apr-13 23:29N 33°45' W 118°11'0 0.0
2018-Apr-13 22:59N 33°45' W 118°11'0 0.0
2018-Apr-13 22:29N 33°45' W 118°11'0 0.0
2018-Apr-13 21:59N 33°45' W 118°11'0 0.0
2018-Apr-13 21:25N 33°45' W 118°11'0 0.0
2018-Apr-13 20:58N 33°45' W 118°11'0 0.0
2018-Apr-13 20:28N 33°45' W 118°11'0 0.0
2018-Apr-13 19:58N 33°45' W 118°11'0 0.0
2018-Apr-13 19:31N 33°45' W 118°11'0 0.0
2018-Apr-13 19:00N 33°45' W 118°11'0 0.0
2018-Apr-13 18:30N 33°45' W 118°11'0 0.0
2018-Apr-13 18:00N 33°45' W 118°11'0 0.0
2018-Apr-13 17:30N 33°45' W 118°11'0 0.0
2018-Apr-13 16:59N 33°45' W 118°11'0 0.0
2018-Apr-13 16:29N 33°45' W 118°11'0 0.0
2018-Apr-13 15:59N 33°45' W 118°11'0 0.0
2018-Apr-13 15:29N 33°45' W 118°11'0 0.0
2018-Apr-13 14:59N 33°45' W 118°11'0 0.0
2018-Apr-13 14:28N 33°45' W 118°11'0 0.0
2018-Apr-13 13:58N 33°45' W 118°11'0 0.0
2018-Apr-13 13:28N 33°45' W 118°11'0 0.0
2018-Apr-13 12:58N 33°45' W 118°11'0 0.1
2018-Apr-13 12:30N 33°45' W 118°11'1 1.4
2018-Apr-13 12:00N 33°44' W 118°11'5 9.1
2018-Apr-13 11:30N 33°40' W 118°11'4 8.9
2018-Apr-13 11:00N 33°35' W 118°10'3 6.8
2018-Apr-13 10:30N 33°32' W 118°08'3 6.8
2018-Apr-13 10:00N 33°29' W 118°07'3 6.6
2018-Apr-13 09:30N 33°26' W 118°06'6 8.3
2018-Apr-13 08:50N 33°21' W 118°03'3 8.3
2018-Apr-13 08:30N 33°18' W 118°02'4 7.9
2018-Apr-13 08:00N 33°14' W 118°01'3 6.7
2018-Apr-13 07:30N 33°11' W 117°60'4 7.8
2018-Apr-13 07:00N 33°07' W 117°58'4 7.5
2018-Apr-13 06:30N 33°04' W 117°57'4 7.7
2018-Apr-13 06:01N 32°60' W 117°58'4 7.7
2018-Apr-13 05:30N 32°56' W 117°59'4 7.8
2018-Apr-13 05:00N 32°54' W 118°02'4 7.7
2018-Apr-13 04:29N 32°51' W 118°06'  
Track history (hours):
 
Tides and Currents Weather Stations Pressure Air Temp Water Temp Dewpoint Dewpoint Depression Visibility Wind Speed Wind Dir Waves Ship Positions

Inspiration

Operator: Carnival Cruise Lines

Last reported at 2018-Apr-23 04:00 UTC. Time now 2018-Apr-23 04:01 UTC.
Position N 32°05' W 117°17'.

Type: Ship. MMSI: 309484000.

Date/timePositionNaut miles runAvg speedWind from/ knotsBaromVisibWave heightAir tempDewpointWater temp
2018-Apr-23 04:00N 32°05' W 117°17'815.4
2018-Apr-23 03:30N 32°01' W 117°09'815.5
2018-Apr-23 03:00N 31°58' W 117°01'815.1
2018-Apr-23 02:29N 31°55' W 116°52'714.9
2018-Apr-23 02:00N 31°51' W 116°45'5 0.4
2018-Apr-22 13:54N 31°50' W 116°39'3 6.6
2018-Apr-22 13:30N 31°50' W 116°42'5 6.9
2018-Apr-22 12:47N 31°50' W 116°48'2 6.4
2018-Apr-22 12:27N 31°50' W 116°50'5 6.6
2018-Apr-22 11:43N 31°49' W 116°56'1 7.0
2018-Apr-22 11:31N 31°49' W 116°58'4 7.0
2018-Apr-22 11:00N 31°47' W 117°01'4 7.2
2018-Apr-22 10:29N 31°46' W 117°05'4 7.2
2018-Apr-22 09:59N 31°46' W 117°10'4 7.9
2018-Apr-22 09:30N 31°44' W 117°14'4 7.2
2018-Apr-22 09:01N 31°41' W 117°14'4 7.3
2018-Apr-22 08:30N 31°37' W 117°14'9 7.3
2018-Apr-22 07:13N 31°28' W 117°11'4 6.2
2018-Apr-22 06:36N 31°24' W 117°10'29 6.4
2018-Apr-22 02:04N 31°50' W 117°27'0 7.0
2018-Apr-22 02:00N 31°50' W 117°27'3 6.6
2018-Apr-22 01:30N 31°47' W 117°24'3 6.6
2018-Apr-22 01:00N 31°45' W 117°21'3 6.5
2018-Apr-22 00:30N 31°42' W 117°19'3 6.6
2018-Apr-22 00:00N 31°40' W 117°16'3 6.6
2018-Apr-21 23:30N 31°38' W 117°13'6 2.8
2018-Apr-21 21:25N 31°33' W 117°09'18 7.5
2018-Apr-21 19:00N 31°36' W 117°30'29 7.6 300 / 211021.3 17.013.716.0
2018-Apr-21 15:10N 31°42' W 118°04'1 7.5
2018-Apr-21 14:59N 31°42' W 118°05'4 7.5
2018-Apr-21 14:30N 31°44' W 118°09'4 6.1
2018-Apr-21 13:51N 31°48' W 118°10'2 7.4
2018-Apr-21 13:30N 31°50' W 118°09'4 8.0
2018-Apr-21 13:00N 31°54' W 118°07'510.3
2018-Apr-21 12:30N 31°58' W 118°05'510.3
2018-Apr-21 12:01N 32°03' W 118°03'510.6
2018-Apr-21 11:31N 32°08' W 118°00'510.9
2018-Apr-21 11:01N 32°13' W 117°58'510.9
2018-Apr-21 10:31N 32°18' W 117°56'611.0
2018-Apr-21 10:00N 32°23' W 117°53'510.7
2018-Apr-21 09:30N 32°28' W 117°51'510.4
2018-Apr-21 09:00N 32°33' W 117°48'5 9.9
2018-Apr-21 08:30N 32°38' W 117°48'510.6
2018-Apr-21 08:00N 32°43' W 117°50'510.8
2018-Apr-21 07:30N 32°48' W 117°52'510.8
2018-Apr-21 07:00N 32°53' W 117°54'510.6
2018-Apr-21 06:30N 32°58' W 117°56'510.6
2018-Apr-21 06:00N 33°03' W 117°59'510.6
2018-Apr-21 05:30N 33°08' W 118°01'510.7
2018-Apr-21 05:00N 33°13' W 118°03'510.6
2018-Apr-21 04:30N 33°18' W 118°06'510.5
2018-Apr-21 04:00N 33°23' W 118°08'510.6
2018-Apr-21 03:30N 33°28' W 118°10'510.8
2018-Apr-21 03:00N 33°33' W 118°12'510.2
2018-Apr-21 02:30N 33°38' W 118°13'5 9.1
2018-Apr-21 02:00N 33°42' W 118°11'3 5.3
2018-Apr-21 01:30N 33°45' W 118°11'0 0.0
2018-Apr-21 01:00N 33°45' W 118°11'0 0.0
2018-Apr-21 00:29N 33°45' W 118°11'0 0.0
2018-Apr-20 23:59N 33°45' W 118°11'0 0.0
2018-Apr-20 23:29N 33°45' W 118°11'0 0.0
2018-Apr-20 22:59N 33°45' W 118°11'0 0.0
2018-Apr-20 22:28N 33°45' W 118°11'0 0.0
2018-Apr-20 21:58N 33°45' W 118°11'0 0.0
2018-Apr-20 21:28N 33°45' W 118°11'0 0.0
2018-Apr-20 20:58N 33°45' W 118°11'0 0.0
2018-Apr-20 20:28N 33°45' W 118°11'0 0.0
2018-Apr-20 19:54N 33°45' W 118°11'0 0.0
2018-Apr-20 19:30N 33°45' W 118°11'0 0.0
2018-Apr-20 19:00N 33°45' W 118°11'0 0.0
2018-Apr-20 18:30N 33°45' W 118°11'0 0.0
2018-Apr-20 18:00N 33°45' W 118°11'0 0.0
2018-Apr-20 17:29N 33°45' W 118°11'0 0.0
2018-Apr-20 16:59N 33°45' W 118°11'0 0.0
2018-Apr-20 16:29N 33°45' W 118°11'0 0.0
2018-Apr-20 15:59N 33°45' W 118°11'0 0.0
2018-Apr-20 15:28N 33°45' W 118°11'0 0.0
2018-Apr-20 14:55N 33°45' W 118°11'0 0.0
2018-Apr-20 14:28N 33°45' W 118°11'0 0.0
2018-Apr-20 13:58N 33°45' W 118°11'0 0.0
2018-Apr-20 12:44N 33°45' W 118°11'0 0.2
2018-Apr-20 12:29N 33°45' W 118°11'1 2.2
2018-Apr-20 12:00N 33°44' W 118°11'5 9.2
2018-Apr-20 11:30N 33°39' W 118°10'4 7.1
2018-Apr-20 11:00N 33°36' W 118°10'714.5
2018-Apr-20 10:30N 33°29' W 118°07'815.1
2018-Apr-20 09:58N 33°22' W 118°04'714.2
2018-Apr-20 09:30N 33°15' W 118°01'815.2
2018-Apr-20 09:00N 33°08' W 117°58'714.8
2018-Apr-20 08:30N 33°01' W 117°55'714.9
2018-Apr-20 08:01N 32°54' W 117°52'714.9
2018-Apr-20 07:30N 32°47' W 117°49'714.5
2018-Apr-20 07:00N 32°40' W 117°46'714.6
2018-Apr-20 06:30N 32°34' W 117°42'714.5
2018-Apr-20 06:00N 32°27' W 117°39'7 0.3
2018-Apr-19 06:13N 32°20' W 117°39'211.1
2018-Apr-19 06:00N 32°22' W 117°40'5435.2
2018-Apr-19 06:00N 32°18' W 117°36'1121.9 280 / 151020.3 13.0 9.416.0
2018-Apr-19 05:30N 32°27' W 117°43'510.8
2018-Apr-19 05:00N 32°31' W 117°46'510.8
2018-Apr-19 04:30N 32°36' W 117°49'510.9
2018-Apr-19 04:00N 32°41' W 117°52'510.9
2018-Apr-19 03:30N 32°45' W 117°56'511.0
2018-Apr-19 03:00N 32°49' W 118°01'510.7
2018-Apr-19 02:30N 32°54' W 118°03'510.6
2018-Apr-19 02:00N 32°59' W 118°05'510.7
2018-Apr-19 01:30N 33°05' W 118°06'611.2
2018-Apr-19 01:00N 33°10' W 118°09'611.3
2018-Apr-19 00:30N 33°15' W 118°12'611.1
2018-Apr-19 00:00N 33°19' W 118°17'3 5.9
2018-Apr-18 23:30N 33°21' W 118°19'0 0.2
2018-Apr-18 23:00N 33°21' W 118°19'0 0.1
2018-Apr-18 22:24N 33°21' W 118°19'0 0.0
2018-Apr-18 22:00N 33°21' W 118°19'0 0.0
2018-Apr-18 21:18N 33°21' W 118°19'0 0.0
2018-Apr-18 20:11N 33°21' W 118°19'0 0.4
2018-Apr-18 19:59N 33°21' W 118°19'0 0.0
2018-Apr-18 19:23N 33°21' W 118°19'0 0.1
2018-Apr-18 18:59N 33°21' W 118°19'0 0.1
2018-Apr-18 18:29N 33°21' W 118°19'0 0.1
2018-Apr-18 17:43N 33°21' W 118°19'0 0.1
2018-Apr-18 17:28N 33°21' W 118°19'0 0.0
2018-Apr-18 16:58N 33°21' W 118°19'0 0.0
2018-Apr-18 16:28N 33°21' W 118°19'0 0.0
2018-Apr-18 15:57N 33°21' W 118°19'0 0.0
2018-Apr-18 15:27N 33°21' W 118°19'0 0.0
2018-Apr-18 14:02N 33°21' W 118°19'0 0.9
2018-Apr-18 13:59N 33°21' W 118°19'2 4.7
2018-Apr-18 13:29N 33°19' W 118°17'3 6.8
2018-Apr-18 13:00N 33°16' W 118°16'3 6.7
2018-Apr-18 12:30N 33°13' W 118°15'4 7.2
2018-Apr-18 12:00N 33°09' W 118°14'4 7.6
2018-Apr-18 11:30N 33°06' W 118°13'4 7.2
2018-Apr-18 11:00N 33°03' W 118°10'4 7.5
2018-Apr-18 10:30N 33°01' W 118°07'4 7.6
2018-Apr-18 10:00N 32°58' W 118°03'4 7.7
2018-Apr-18 09:30N 32°55' W 118°01'4 7.7
2018-Apr-18 08:57N 32°51' W 117°58'3 7.7
2018-Apr-18 08:30N 32°48' W 117°56'4 7.6
2018-Apr-18 08:00N 32°44' W 117°57'4 7.8
2018-Apr-18 07:30N 32°41' W 117°59'4 8.1
2018-Apr-18 07:00N 32°37' W 118°01'3 6.2
2018-Apr-18 06:30N 32°39' W 118°05'4 7.9
2018-Apr-18 06:00N 32°42' W 118°04'4 8.2
2018-Apr-18 05:30N 32°46' W 118°02'4 8.4
2018-Apr-18 05:00N 32°51' W 118°02'4 8.5
2018-Apr-18 04:30N 32°54' W 118°04'510.3
2018-Apr-18 04:00N 32°56' W 118°10'510.3
2018-Apr-18 03:30N 32°58' W 118°16'4 7.9
2018-Apr-18 03:00N 32°57' W 118°20'3 6.8
2018-Apr-18 02:30N 32°54' W 118°18'5 7.0
2018-Apr-18 01:51N 32°51' W 118°14'21 8.2
2018-Apr-17 23:19N 32°41' W 117°52'310.2
2018-Apr-17 23:00N 32°39' W 117°50'610.6
2018-Apr-17 22:28N 32°33' W 117°50'510.9
2018-Apr-17 22:00N 32°28' W 117°52'610.8
2018-Apr-17 21:28N 32°23' W 117°53'3510.1
2018-Apr-17 18:00N 31°48' W 118°00'29 4.6 350 / 201025.310.8 16.0 8.816.0
2018-Apr-17 11:44N 32°16' W 117°55'2 7.2
2018-Apr-17 11:26N 32°19' W 117°54'3 7.4
2018-Apr-17 10:59N 32°22' W 117°53'4 7.7
2018-Apr-17 10:30N 32°25' W 117°51'4 7.8
2018-Apr-17 10:00N 32°29' W 117°50'4 7.6
2018-Apr-17 09:30N 32°32' W 117°49'4 7.3
2018-Apr-17 09:00N 32°36' W 117°47'3 6.8
2018-Apr-17 08:30N 32°39' W 117°48'4 7.1
2018-Apr-17 08:00N 32°43' W 117°49'4 7.5
2018-Apr-17 07:30N 32°46' W 117°51'4 7.9
2018-Apr-17 07:00N 32°50' W 117°53'4 7.6
2018-Apr-17 06:30N 32°53' W 117°54'4 7.6
2018-Apr-17 06:00N 32°57' W 117°56'4 7.8
2018-Apr-17 05:30N 33°00' W 117°57'4 7.8
2018-Apr-17 05:00N 33°04' W 117°59'5 7.8
2018-Apr-17 04:24N 33°09' W 118°01'3 7.4
2018-Apr-17 04:00N 33°11' W 118°02'510.3
2018-Apr-17 03:29N 33°16' W 118°05'1010.4
2018-Apr-17 02:29N 33°26' W 118°09'510.1
2018-Apr-17 02:00N 33°31' W 118°11'510.0
2018-Apr-17 01:30N 33°35' W 118°13'611.3
2018-Apr-17 01:00N 33°41' W 118°12'4 8.4
2018-Apr-17 00:30N 33°45' W 118°11'0 0.0
2018-Apr-16 23:58N 33°45' W 118°11'0 0.0
2018-Apr-16 23:30N 33°45' W 118°11'0 0.0
2018-Apr-16 23:00N 33°45' W 118°11'0 0.0
2018-Apr-16 22:30N 33°45' W 118°11'0 0.0
2018-Apr-16 22:00N 33°45' W 118°11'0 0.0
2018-Apr-16 21:30N 33°45' W 118°11'0 0.0
2018-Apr-16 20:59N 33°45' W 118°11'0 0.0
2018-Apr-16 20:29N 33°45' W 118°11'0 0.0
2018-Apr-16 19:59N 33°45' W 118°11'0 0.0
2018-Apr-16 19:29N 33°45' W 118°11'0 0.0
2018-Apr-16 18:58N 33°45' W 118°11'0 0.0
2018-Apr-16 18:28N 33°45' W 118°11'0 0.0
2018-Apr-16 17:58N 33°45' W 118°11'0 0.0
2018-Apr-16 17:28N 33°45' W 118°11'0 0.0
2018-Apr-16 16:58N 33°45' W 118°11'0 0.0
2018-Apr-16 16:30N 33°45' W 118°11'0 0.0
2018-Apr-16 16:00N 33°45' W 118°11'0 0.0
2018-Apr-16 15:30N 33°45' W 118°11'0 0.0
2018-Apr-16 15:00N 33°45' W 118°11'0 0.0
2018-Apr-16 14:27N 33°45' W 118°11'0 0.0
2018-Apr-16 13:59N 33°45' W 118°11'0 0.0
2018-Apr-16 13:29N 33°45' W 118°11'0 0.0
2018-Apr-16 12:59N 33°45' W 118°11'0 0.0
2018-Apr-16 12:30N 33°45' W 118°11'1 1.9
2018-Apr-16 12:00N 33°44' W 118°11'4 8.8
2018-Apr-16 11:30N 33°40' W 118°11'4 7.3
2018-Apr-16 11:00N 33°36' W 118°10'911.2
2018-Apr-16 10:12N 33°28' W 118°06'312.4
2018-Apr-16 10:00N 33°25' W 118°05'611.8
2018-Apr-16 09:29N 33°20' W 118°03'715.2
2018-Apr-16 09:00N 33°13' W 117°60'815.8
2018-Apr-16 08:30N 33°05' W 117°57'815.4
2018-Apr-16 08:00N 32°58' W 117°53'815.3
2018-Apr-16 07:30N 32°51' W 117°50'815.1
2018-Apr-16 07:00N 32°44' W 117°47'815.2
2018-Apr-16 06:30N 32°37' W 117°44'815.2
2018-Apr-16 06:00N 32°30' W 117°40'6401.9
2018-Apr-16 06:00N 32°36' W 117°42'1428.6 300 / 141017.2 5.4 16.014.416.5
2018-Apr-16 05:30N 32°23' W 117°36'814.9
2018-Apr-16 05:00N 32°16' W 117°32'914.8
2018-Apr-16 04:23N 32°10' W 117°25'715.3
2018-Apr-16 03:57N 32°06' W 117°18'915.6
2018-Apr-16 03:24N 32°01' W 117°10'615.6
2018-Apr-16 03:00N 31°59' W 117°03'815.3
2018-Apr-16 02:30N 31°56' W 116°55'814.8
2018-Apr-16 01:58N 31°52' W 116°47'612.9
2018-Apr-16 01:30N 31°50' W 116°40'7 0.6
2018-Apr-15 12:51N 31°50' W 116°48'84 4.9
2018-Apr-14 19:49N 31°23' W 118°21'2 7.3
2018-Apr-14 19:30N 31°25' W 118°20'9 5.7
2018-Apr-14 18:00N 31°30' W 118°12'639.0 350 / 111025.310.8 17.013.716.0
2018-Apr-14 17:50N 31°36' W 118°15'2 7.1
2018-Apr-14 17:31N 31°38' W 118°14'4 7.1
2018-Apr-14 17:01N 31°41' W 118°13'4 7.3
2018-Apr-14 16:31N 31°45' W 118°11'4 7.2
2018-Apr-14 16:00N 31°48' W 118°10'4 7.1
2018-Apr-14 15:30N 31°51' W 118°08'3 6.9
2018-Apr-14 15:01N 31°55' W 118°07'3 6.8
2018-Apr-14 14:30N 31°58' W 118°05'3 6.9
2018-Apr-14 14:01N 32°01' W 118°04'4 7.1
2018-Apr-14 13:31N 32°04' W 118°02'4 7.2
2018-Apr-14 13:00N 32°08' W 118°01'4 8.1
2018-Apr-14 12:30N 32°11' W 117°59'4 7.2
2018-Apr-14 12:00N 32°15' W 117°57'3 6.6
2018-Apr-14 11:30N 32°18' W 117°56'3 6.9
2018-Apr-14 11:00N 32°21' W 117°55'4 7.1
2018-Apr-14 10:30N 32°24' W 117°53'4 7.2
2018-Apr-14 10:00N 32°28' W 117°51'4 7.3
2018-Apr-14 09:31N 32°31' W 117°50'4 7.3
2018-Apr-14 09:01N 32°35' W 117°48'4 7.3
2018-Apr-14 08:31N 32°38' W 117°47'4 7.3
2018-Apr-14 08:00N 32°41' W 117°49'4 7.2
2018-Apr-14 07:30N 32°45' W 117°50'4 7.7
2018-Apr-14 07:00N 32°48' W 117°52'4 8.1
2018-Apr-14 06:31N 32°52' W 117°54'4 8.1
2018-Apr-14 06:01N 32°56' W 117°55'4 8.1
2018-Apr-14 05:30N 32°60' W 117°57'4 8.1
2018-Apr-14 05:00N 33°04' W 117°59'4 8.1
2018-Apr-14 04:30N 33°07' W 118°01'4 8.3
2018-Apr-14 04:00N 33°11' W 118°02'611.6
2018-Apr-14 03:30N 33°17' W 118°05'611.7
2018-Apr-14 02:59N 33°22' W 118°07'511.5
2018-Apr-14 02:31N 33°27' W 118°10'611.4
2018-Apr-14 02:01N 33°33' W 118°12'510.4
2018-Apr-14 01:30N 33°38' W 118°13'5 9.8
2018-Apr-14 01:00N 33°43' W 118°11'2 4.5
2018-Apr-14 00:30N 33°45' W 118°11'0 0.0
2018-Apr-13 23:59N 33°45' W 118°11'0 0.0
2018-Apr-13 23:29N 33°45' W 118°11'0 0.0
2018-Apr-13 22:59N 33°45' W 118°11'0 0.0
2018-Apr-13 22:29N 33°45' W 118°11'0 0.0
2018-Apr-13 21:59N 33°45' W 118°11'0 0.0
2018-Apr-13 21:25N 33°45' W 118°11'0 0.0
2018-Apr-13 20:58N 33°45' W 118°11'0 0.0
2018-Apr-13 20:28N 33°45' W 118°11'0 0.0
2018-Apr-13 19:58N 33°45' W 118°11'0 0.0
2018-Apr-13 19:31N 33°45' W 118°11'0 0.0
2018-Apr-13 19:00N 33°45' W 118°11'0 0.0
2018-Apr-13 18:30N 33°45' W 118°11'0 0.0
2018-Apr-13 18:00N 33°45' W 118°11'0 0.0
2018-Apr-13 17:30N 33°45' W 118°11'0 0.0
2018-Apr-13 16:59N 33°45' W 118°11'0 0.0
2018-Apr-13 16:29N 33°45' W 118°11'0 0.0
2018-Apr-13 15:59N 33°45' W 118°11'0 0.0
2018-Apr-13 15:29N 33°45' W 118°11'0 0.0
2018-Apr-13 14:59N 33°45' W 118°11'0 0.0
2018-Apr-13 14:28N 33°45' W 118°11'0 0.0
2018-Apr-13 13:58N 33°45' W 118°11'0 0.0
2018-Apr-13 13:28N 33°45' W 118°11'0 0.0
2018-Apr-13 12:58N 33°45' W 118°11'0 0.1
2018-Apr-13 12:30N 33°45' W 118°11'1 1.4
2018-Apr-13 12:00N 33°44' W 118°11'5 9.1
2018-Apr-13 11:30N 33°40' W 118°11'4 8.9
2018-Apr-13 11:00N 33°35' W 118°10'3 6.8
2018-Apr-13 10:30N 33°32' W 118°08'3 6.8
2018-Apr-13 10:00N 33°29' W 118°07'3 6.6
2018-Apr-13 09:30N 33°26' W 118°06'6 8.3
2018-Apr-13 08:50N 33°21' W 118°03'3 8.3
2018-Apr-13 08:30N 33°18' W 118°02'4 7.9
2018-Apr-13 08:00N 33°14' W 118°01'3 6.7
2018-Apr-13 07:30N 33°11' W 117°60'4 7.8
2018-Apr-13 07:00N 33°07' W 117°58'4 7.5
2018-Apr-13 06:30N 33°04' W 117°57'4 7.7
2018-Apr-13 06:01N 32°60' W 117°58'4 7.7
2018-Apr-13 05:30N 32°56' W 117°59'4 7.8
2018-Apr-13 05:00N 32°54' W 118°02'4 7.7
2018-Apr-13 04:29N 32°51' W 118°06'  

Dump ship's entire track history